createdAt,value
2018-04-10T00:00:16.986Z,74.40
2018-04-10T00:02:43.982Z,65.80
2018-04-10T00:05:10.121Z,70.50
2018-04-10T00:07:36.192Z,72.87
2018-04-10T00:10:02.243Z,69.80
2018-04-10T00:12:28.470Z,76.43
2018-04-10T00:14:55.242Z,71.70
2018-04-10T00:17:21.346Z,72.80
2018-04-10T00:19:47.677Z,69.00
2018-04-10T00:22:13.783Z,65.40
2018-04-10T00:24:39.833Z,66.00
2018-04-10T00:27:05.899Z,73.83
2018-04-10T00:29:32.175Z,68.60
2018-04-10T00:31:59.016Z,71.67
2018-04-10T00:34:25.815Z,67.50
2018-04-10T00:36:51.886Z,67.33
2018-04-10T00:39:18.312Z,70.90
2018-04-10T00:41:44.462Z,70.20
2018-04-10T00:44:10.511Z,65.47
2018-04-10T00:46:36.572Z,65.07
2018-04-10T00:49:03.341Z,69.73
2018-04-10T00:51:29.392Z,63.30
2018-04-10T00:53:55.821Z,72.63
2018-04-10T00:56:22.646Z,61.30
2018-04-10T00:58:48.705Z,57.37
2018-04-10T01:01:15.631Z,59.83
2018-04-10T01:03:41.706Z,64.17
2018-04-10T01:06:08.499Z,60.50
2018-04-10T01:08:34.641Z,58.60
2018-04-10T01:11:01.425Z,55.83
2018-04-10T01:13:27.489Z,63.33
2018-04-10T01:15:54.291Z,59.57
2018-04-10T01:18:20.418Z,63.10
2018-04-10T01:20:46.544Z,58.63
2018-04-10T01:23:12.606Z,60.37
2018-04-10T01:25:38.625Z,66.00
2018-04-10T01:28:04.768Z,61.50
2018-04-10T01:30:30.819Z,62.97
2018-04-10T01:32:56.944Z,61.87
2018-04-10T01:35:23.045Z,60.40
2018-04-10T01:37:49.160Z,66.47
2018-04-10T01:40:15.653Z,68.37
2018-04-10T01:42:41.709Z,66.40
2018-04-10T01:45:07.735Z,73.87
2018-04-10T01:47:33.804Z,62.53
2018-04-10T01:49:59.860Z,62.63
2018-04-10T01:52:25.966Z,62.10
2018-04-10T01:54:52.045Z,64.30
2018-04-10T01:57:18.228Z,69.80
2018-04-10T01:59:44.417Z,66.60
2018-04-10T02:02:11.220Z,71.77
2018-04-10T02:04:37.365Z,76.27
2018-04-10T02:07:03.479Z,68.60
2018-04-10T02:12:35.247Z,67.30
2018-04-10T02:15:01.309Z,76.37
2018-04-10T02:17:27.601Z,78.80
2018-04-10T02:19:53.647Z,74.03
2018-04-10T02:22:19.871Z,75.00
2018-04-10T02:24:46.173Z,76.63
2018-04-10T02:27:12.308Z,77.57
2018-04-10T02:29:39.189Z,80.43
2018-04-10T02:32:05.367Z,79.10
2018-04-10T02:34:31.424Z,72.70
2018-04-10T02:36:57.856Z,75.67
2018-04-10T02:39:23.937Z,77.33
2018-04-10T02:41:50.835Z,80.77
2018-04-10T02:44:17.372Z,80.37
2018-04-10T02:46:44.561Z,79.83
2018-04-10T02:49:10.680Z,80.90
2018-04-10T02:51:36.778Z,82.33
2018-04-10T02:54:03.594Z,82.80
2018-04-10T02:56:29.655Z,89.80
2018-04-10T02:58:55.711Z,82.07
2018-04-10T03:01:22.570Z,86.90
2018-04-10T03:03:49.522Z,82.33
2018-04-10T03:06:16.706Z,83.87
2018-04-10T03:08:42.831Z,80.40
2018-04-10T03:11:08.913Z,82.83
2018-04-10T03:13:35.691Z,86.03
2018-04-10T03:16:01.785Z,84.60
2018-04-10T03:18:27.967Z,80.07
2018-04-10T03:20:54.019Z,81.87
2018-04-10T03:23:20.895Z,79.30
2018-04-10T03:25:47.765Z,81.73
2018-04-10T03:28:14.078Z,82.30
2018-04-10T03:30:40.941Z,78.57
2018-04-10T03:33:07.859Z,78.73
2018-04-10T03:35:33.948Z,80.30
2018-04-10T03:38:00.064Z,80.50
2018-04-10T03:40:26.155Z,76.47
2018-04-10T03:42:52.327Z,68.50
2018-04-10T03:45:18.558Z,75.97
2018-04-10T03:47:44.783Z,85.87
2018-04-10T03:50:11.660Z,72.33
2018-04-10T03:52:37.785Z,67.03
2018-04-10T03:55:03.919Z,74.60
2018-04-10T03:57:30.028Z,73.00
2018-04-10T03:59:56.122Z,76.43
2018-04-10T04:02:22.313Z,71.57
2018-04-10T04:04:48.587Z,78.37
2018-04-10T04:07:14.870Z,77.73
2018-04-10T04:09:41.748Z,74.93
2018-04-10T04:12:07.864Z,79.17
2018-04-10T04:14:34.007Z,77.43
2018-04-10T04:17:13.243Z,78.47
2018-04-10T04:19:52.566Z,92.63
2018-04-10T04:22:30.987Z,83.90
2018-04-10T04:24:57.083Z,79.33
2018-04-10T04:27:23.995Z,82.40
2018-04-10T04:29:50.122Z,79.47
2018-04-10T04:32:16.686Z,90.73
2018-04-10T04:34:42.874Z,84.50
2018-04-10T04:37:09.334Z,83.80
2018-04-10T04:39:35.473Z,84.87
2018-04-10T04:42:01.609Z,91.37
2018-04-10T04:44:27.751Z,87.90
2018-04-10T04:46:53.911Z,88.73
2018-04-10T04:49:27.108Z,88.23
2018-04-10T04:51:53.309Z,82.70
2018-04-10T04:54:19.435Z,88.97
2018-04-10T04:56:45.699Z,97.03
2018-04-10T04:59:11.879Z,87.70
2018-04-10T05:01:38.003Z,91.47
2018-04-10T05:04:04.143Z,91.27
2018-04-10T05:06:30.314Z,91.63
2018-04-10T05:08:56.451Z,84.97
2018-04-10T05:11:23.414Z,96.43
2018-04-10T05:13:50.010Z,82.70
2018-04-10T05:16:16.351Z,83.23
2018-04-10T05:18:42.474Z,81.93
2018-04-10T05:21:09.419Z,83.70
2018-04-10T05:23:35.685Z,89.30
2018-04-10T05:26:02.520Z,84.23
2018-04-10T05:28:28.791Z,92.50
2018-04-10T05:30:55.005Z,79.30
2018-04-10T05:33:22.116Z,80.07
2018-04-10T05:35:49.030Z,76.47
2018-04-10T05:38:15.217Z,80.93
2018-04-10T05:40:41.321Z,82.73
2018-04-10T05:43:07.427Z,80.13
2018-04-10T05:45:33.548Z,79.33
2018-04-10T05:47:59.735Z,80.33
2018-04-10T05:50:26.627Z,72.80
2018-04-10T05:52:52.741Z,76.20
2018-04-10T05:55:19.014Z,75.60
2018-04-10T05:57:45.243Z,73.57
2018-04-10T06:00:11.387Z,77.43
2018-04-10T06:02:37.475Z,74.93
2018-04-10T06:05:03.826Z,72.03
2018-04-10T06:07:30.737Z,77.03
2018-04-10T06:09:56.919Z,71.80
2018-04-10T06:12:23.450Z,74.40
2018-04-10T06:14:49.608Z,80.63
2018-04-10T06:17:15.809Z,75.00
2018-04-10T06:19:41.935Z,69.60
2018-04-10T06:22:08.132Z,65.97
2018-04-10T06:24:35.091Z,67.47
2018-04-10T06:27:01.236Z,61.40
2018-04-10T06:29:28.139Z,62.33
2018-04-10T06:31:54.245Z,58.50
2018-04-10T06:34:21.067Z,59.60
2018-04-10T06:36:48.026Z,54.87
2018-04-10T06:39:14.531Z,61.20
2018-04-10T06:41:40.732Z,66.63
2018-04-10T06:44:08.147Z,62.47
2018-04-10T06:46:34.295Z,68.73
2018-04-10T06:49:01.265Z,57.17
2018-04-10T06:51:27.603Z,53.40
2018-04-10T06:53:53.741Z,58.07
2018-04-10T06:56:19.989Z,55.83
2018-04-10T06:58:46.979Z,56.63
2018-04-10T07:01:13.900Z,53.73
2018-04-10T07:03:40.110Z,54.13
2018-04-10T07:06:06.260Z,69.53
2018-04-10T07:08:32.409Z,55.60
2018-04-10T07:10:58.519Z,54.33
2018-04-10T07:13:24.748Z,55.67
2018-04-10T07:15:51.622Z,56.00
2018-04-10T07:18:17.746Z,55.70
2018-04-10T07:20:44.016Z,75.23
2018-04-10T07:23:10.140Z,52.03
2018-04-10T07:25:36.182Z,53.60
2018-04-10T07:28:02.264Z,51.37
2018-04-10T07:30:28.309Z,59.50
2018-04-10T07:32:54.641Z,52.50
2018-04-10T07:35:20.683Z,54.30
2018-04-10T07:37:46.847Z,54.10
2018-04-10T07:40:13.020Z,56.70
2018-04-10T07:42:39.065Z,58.73
2018-04-10T07:45:05.146Z,52.30
2018-04-10T07:47:31.208Z,49.03
2018-04-10T07:49:57.981Z,51.13
2018-04-10T07:52:24.022Z,50.70
2018-04-10T07:54:51.183Z,56.70
2018-04-10T07:57:17.266Z,53.23
2018-04-10T07:59:44.019Z,50.80
2018-04-10T08:02:10.104Z,59.43
2018-04-10T08:04:36.149Z,50.07
2018-04-10T08:07:02.214Z,50.13
2018-04-10T08:09:28.297Z,52.90
2018-04-10T08:11:54.321Z,50.50
2018-04-10T08:14:20.532Z,52.20
2018-04-10T08:16:46.761Z,53.20
2018-04-10T08:19:12.801Z,48.17
2018-04-10T08:21:38.850Z,48.83
2018-04-10T08:24:05.670Z,46.03
2018-04-10T08:26:32.516Z,47.27
2018-04-10T08:28:59.299Z,52.67
2018-04-10T08:31:25.372Z,49.67
2018-04-10T08:33:51.431Z,48.33
2018-04-10T08:36:18.327Z,44.60
2018-04-10T08:38:44.882Z,52.13
2018-04-10T08:41:10.965Z,50.67
2018-04-10T08:43:37.025Z,49.27
2018-04-10T08:46:03.899Z,48.30
2018-04-10T08:48:29.953Z,47.33
2018-04-10T08:50:55.996Z,46.67
2018-04-10T08:53:22.036Z,51.33
2018-04-10T08:55:48.125Z,48.90
2018-04-10T08:58:14.366Z,48.40
2018-04-10T09:00:40.465Z,43.77
2018-04-10T09:03:06.505Z,44.73
2018-04-10T09:05:32.608Z,48.33
2018-04-10T09:07:59.373Z,43.80
2018-04-10T09:10:25.444Z,46.60
2018-04-10T09:12:51.618Z,42.93
2018-04-10T09:15:18.629Z,43.57
2018-04-10T09:17:45.043Z,53.03
2018-04-10T09:20:11.231Z,40.70
2018-04-10T09:22:37.273Z,50.30
2018-04-10T09:25:03.293Z,46.03
2018-04-10T09:27:29.352Z,47.37
2018-04-10T09:29:55.401Z,45.83
2018-04-10T09:32:21.473Z,45.80
2018-04-10T09:34:48.431Z,44.80
2018-04-10T09:37:15.289Z,45.00
2018-04-10T09:39:41.343Z,40.63
2018-04-10T09:42:07.765Z,40.33
2018-04-10T09:44:33.820Z,43.90
2018-04-10T09:46:59.844Z,49.50
2018-04-10T09:49:25.925Z,49.33
2018-04-10T09:51:51.980Z,49.43
2018-04-10T09:54:18.038Z,45.53
2018-04-10T09:56:44.269Z,39.93
2018-04-10T09:59:10.326Z,41.70
2018-04-10T10:01:36.374Z,40.77
2018-04-10T10:04:02.501Z,46.83
2018-04-10T10:06:28.608Z,40.73
2018-04-10T10:08:55.464Z,40.77
2018-04-10T10:11:21.517Z,47.93
2018-04-10T10:13:47.654Z,51.53
2018-04-10T10:16:14.614Z,39.57
2018-04-10T10:18:40.783Z,47.27
2018-04-10T10:21:07.121Z,44.23
2018-04-10T10:23:34.169Z,72.07
2018-04-10T10:26:00.308Z,49.00
2018-04-10T10:28:26.359Z,50.50
2018-04-10T10:30:53.157Z,52.30
2018-04-10T10:33:19.269Z,50.40
2018-04-10T10:35:45.576Z,54.23
2018-04-10T10:38:12.551Z,49.23
2018-04-10T10:40:39.345Z,49.43
2018-04-10T10:43:05.385Z,52.00
2018-04-10T10:45:31.449Z,49.13
2018-04-10T10:47:57.481Z,55.03
2018-04-10T10:50:23.553Z,51.73
2018-04-10T10:52:50.337Z,52.20
2018-04-10T10:55:16.475Z,51.07
2018-04-10T10:57:42.637Z,55.93
2018-04-10T11:00:08.700Z,56.40
2018-04-10T11:02:34.741Z,47.63
2018-04-10T11:05:00.812Z,52.37
2018-04-10T11:07:26.844Z,53.00
2018-04-10T11:09:52.891Z,52.07
2018-04-10T11:12:19.124Z,58.00
2018-04-10T11:14:45.216Z,50.90
2018-04-10T11:17:11.273Z,46.97
2018-04-10T11:19:37.318Z,43.83
2018-04-10T11:22:03.427Z,39.93
2018-04-10T11:24:29.494Z,44.10
2018-04-10T11:26:56.274Z,45.07
2018-04-10T11:29:22.303Z,42.67
2018-04-10T11:31:48.551Z,43.10
2018-04-10T11:34:14.655Z,40.30
2018-04-10T11:36:41.449Z,38.80
2018-04-10T11:39:07.520Z,35.60
2018-04-10T11:41:33.673Z,35.23
2018-04-10T11:43:59.721Z,35.90
2018-04-10T11:46:25.791Z,41.10
2018-04-10T11:48:51.818Z,43.17
2018-04-10T11:51:18.717Z,36.03
2018-04-10T11:53:44.888Z,39.10
2018-04-10T11:56:10.965Z,35.20
2018-04-10T11:58:37.911Z,32.03
2018-04-10T12:01:04.044Z,37.57
2018-04-10T12:03:30.848Z,33.23
2018-04-10T12:05:57.266Z,39.50
2018-04-10T12:08:23.330Z,31.07
2018-04-10T12:10:49.400Z,35.60
2018-04-10T12:15:48.421Z,32.03
2018-04-10T12:18:14.947Z,31.00
2018-04-10T12:20:41.069Z,34.00
2018-04-10T12:23:07.865Z,36.87
2018-04-10T12:25:34.042Z,38.93
2018-04-10T12:28:00.105Z,32.70
2018-04-10T12:30:26.861Z,32.30
2018-04-10T12:32:52.919Z,29.07
2018-04-10T12:35:19.072Z,34.17
2018-04-10T12:37:45.177Z,32.30
2018-04-10T12:40:11.989Z,27.83
2018-04-10T12:42:38.970Z,31.77
2018-04-10T12:45:05.154Z,34.30
2018-04-10T12:47:31.215Z,27.90
2018-04-10T12:49:57.275Z,33.47
2018-04-10T12:52:23.377Z,35.70
2018-04-10T12:54:49.466Z,35.53
2018-04-10T12:57:15.677Z,27.47
2018-04-10T12:59:41.850Z,29.70
2018-04-10T13:02:08.707Z,26.70
2018-04-10T13:04:34.895Z,27.30
2018-04-10T13:07:01.070Z,31.00
2018-04-10T13:09:27.089Z,29.70
2018-04-10T13:11:53.142Z,27.70
2018-04-10T13:14:19.212Z,32.33
2018-04-10T13:16:46.049Z,31.60
2018-04-10T13:19:13.435Z,28.50
2018-04-10T13:21:40.265Z,29.17
2018-04-10T13:24:06.288Z,33.53
2018-04-10T13:26:32.658Z,32.17
2018-04-10T13:28:58.733Z,31.00
2018-04-10T13:31:24.806Z,30.50
2018-04-10T13:33:50.880Z,35.07
2018-04-10T13:36:17.677Z,29.57
2018-04-10T13:38:43.826Z,34.30
2018-04-10T13:41:10.663Z,31.27
2018-04-10T13:43:36.737Z,33.93
2018-04-10T13:46:02.810Z,28.70
2018-04-10T13:48:29.643Z,35.87
2018-04-10T13:50:55.730Z,31.00
2018-04-10T13:53:21.831Z,28.40
2018-04-10T13:55:48.697Z,32.20
2018-04-10T13:58:14.805Z,41.00
2018-04-10T14:00:40.846Z,30.80
2018-04-10T14:03:06.969Z,30.33
2018-04-10T14:05:33.059Z,35.00
2018-04-10T14:08:00.041Z,28.27
2018-04-10T14:10:26.206Z,31.67
2018-04-10T14:12:52.386Z,34.03
2018-04-10T14:15:19.115Z,33.03
2018-04-10T14:17:45.268Z,38.73
2018-04-10T14:20:12.246Z,39.93
2018-04-10T14:22:39.040Z,36.60
2018-04-10T14:25:05.169Z,35.00
2018-04-10T14:27:31.239Z,39.40
2018-04-10T14:29:57.309Z,34.93
2018-04-10T14:32:23.366Z,41.30
2018-04-10T14:34:50.238Z,32.40
2018-04-10T14:37:16.562Z,31.97
2018-04-10T14:39:43.406Z,37.70
2018-04-10T14:42:10.202Z,31.80
2018-04-10T14:44:36.275Z,33.83
2018-04-10T14:47:02.317Z,31.17
2018-04-10T14:49:29.898Z,33.33
2018-04-10T14:51:56.265Z,34.67
2018-04-10T14:54:23.094Z,35.50
2018-04-10T14:56:49.175Z,33.67
2018-04-10T14:59:15.281Z,32.27
2018-04-10T15:01:42.082Z,30.40
2018-04-10T15:04:08.185Z,31.90
2018-04-10T15:06:34.965Z,27.87
2018-04-10T15:09:02.280Z,28.40
2018-04-10T15:11:29.779Z,23.13
2018-04-10T15:13:55.890Z,26.87
2018-04-10T15:16:22.158Z,28.53
2018-04-10T15:18:48.969Z,32.63
2018-04-10T15:21:15.072Z,29.37
2018-04-10T15:23:41.117Z,24.93
2018-04-10T15:26:07.178Z,35.87
2018-04-10T15:28:33.214Z,28.97
2018-04-10T15:30:59.596Z,34.50
2018-04-10T15:33:25.660Z,29.47
2018-04-10T15:35:51.741Z,31.37
2018-04-10T15:38:17.946Z,29.93
2018-04-10T15:40:44.106Z,29.40
2018-04-10T15:43:10.130Z,25.63
2018-04-10T15:45:36.221Z,29.67
2018-04-10T15:48:02.313Z,25.80
2018-04-10T15:50:28.371Z,29.23
2018-04-10T15:52:54.409Z,26.93
2018-04-10T15:55:20.478Z,29.70
2018-04-10T15:57:46.615Z,28.20
2018-04-10T16:00:13.509Z,28.30
2018-04-10T16:02:39.602Z,25.40
2018-04-10T16:05:05.616Z,23.13
2018-04-10T16:07:31.680Z,27.33
2018-04-10T16:09:57.753Z,25.00
2018-04-10T16:12:23.882Z,27.90
2018-04-10T16:14:49.953Z,24.10
2018-04-10T16:17:16.146Z,27.93
2018-04-10T16:19:42.196Z,26.20
2018-04-10T16:22:08.968Z,31.57
2018-04-10T16:24:35.039Z,29.30
2018-04-10T16:27:01.087Z,27.10
2018-04-10T16:29:27.157Z,32.37
2018-04-10T16:31:53.926Z,27.20
2018-04-10T16:34:20.029Z,25.57
2018-04-10T16:36:46.945Z,30.20
2018-04-10T16:39:13.040Z,26.87
2018-04-10T16:41:39.801Z,28.17
2018-04-10T16:44:06.591Z,28.40
2018-04-10T16:46:32.714Z,32.43
2018-04-10T16:48:58.772Z,33.93
2018-04-10T16:51:24.811Z,33.43
2018-04-10T16:53:51.229Z,31.87
2018-04-10T16:56:17.324Z,30.60
2018-04-10T16:58:43.404Z,28.80
2018-04-10T17:01:09.456Z,34.20
2018-04-10T17:03:35.482Z,29.00
2018-04-10T17:06:01.533Z,30.80
2018-04-10T17:08:27.625Z,27.53
2018-04-10T17:10:54.398Z,26.07
2018-04-10T17:13:21.165Z,33.27
2018-04-10T17:15:47.286Z,26.37
2018-04-10T17:18:14.121Z,31.90
2018-04-10T17:20:40.147Z,36.17
2018-04-10T17:23:06.214Z,30.70
2018-04-10T17:25:33.082Z,28.77
2018-04-10T17:27:59.159Z,31.40
2018-04-10T17:30:25.330Z,35.37
2018-04-10T17:32:51.709Z,44.50
2018-04-10T17:35:17.863Z,36.30
2018-04-10T17:37:45.133Z,30.73
2018-04-10T17:40:11.209Z,31.67
2018-04-10T17:42:37.224Z,26.17
2018-04-10T17:45:03.519Z,31.50
2018-04-10T17:47:29.616Z,30.63
2018-04-10T17:49:55.661Z,38.47
2018-04-10T17:52:21.956Z,32.30
2018-04-10T17:54:48.324Z,31.60
2018-04-10T17:57:14.575Z,37.27
2018-04-10T17:59:40.807Z,36.03
2018-04-10T18:02:06.929Z,45.53
2018-04-10T18:04:33.030Z,40.13
2018-04-10T18:06:59.105Z,47.33
2018-04-10T18:09:25.392Z,33.17
2018-04-10T18:11:52.363Z,31.37
2018-04-10T18:14:18.405Z,32.77
2018-04-10T18:16:45.614Z,36.23
2018-04-10T18:19:11.711Z,32.33
2018-04-10T18:21:38.598Z,48.33
2018-04-10T18:24:04.656Z,37.90
2018-04-10T18:26:30.775Z,44.00
2018-04-10T18:28:56.835Z,40.37
2018-04-10T18:31:23.182Z,41.47
2018-04-10T18:33:49.334Z,41.77
2018-04-10T18:36:15.689Z,37.90
2018-04-10T18:38:42.494Z,36.40
2018-04-10T18:41:08.533Z,40.43
2018-04-10T18:43:34.609Z,46.43
2018-04-10T18:46:00.670Z,41.60
2018-04-10T18:48:27.460Z,41.20
2018-04-10T18:50:53.702Z,43.80
2018-04-10T18:53:19.760Z,41.60
2018-04-10T18:55:46.970Z,35.63
2018-04-10T18:58:13.795Z,40.20
2018-04-10T19:00:39.849Z,44.43
2018-04-10T19:03:05.890Z,34.17
2018-04-10T19:05:31.947Z,43.03
2018-04-10T19:07:57.989Z,38.10
2018-04-10T19:10:24.833Z,43.43
2018-04-10T19:12:50.999Z,37.43
2018-04-10T19:15:17.173Z,42.50
2018-04-10T19:17:43.360Z,43.60
2018-04-10T19:20:09.521Z,45.00
2018-04-10T19:22:35.573Z,42.77
2018-04-10T19:25:01.603Z,40.63
2018-04-10T19:27:27.680Z,40.50
2018-04-10T19:29:53.820Z,39.10
2018-04-10T19:32:19.985Z,44.47
2018-04-10T19:34:46.894Z,37.63
2018-04-10T19:37:12.941Z,37.77
2018-04-10T19:39:39.093Z,48.43
2018-04-10T19:42:05.486Z,40.13
2018-04-10T19:44:31.621Z,35.90
2018-04-10T19:46:57.649Z,36.87
2018-04-10T19:49:24.591Z,36.20
2018-04-10T19:51:50.953Z,39.43
2018-04-10T19:54:17.198Z,34.43
2018-04-10T19:56:43.519Z,34.90
2018-04-10T19:59:10.553Z,34.83
2018-04-10T20:01:36.605Z,31.67
2018-04-10T20:04:02.683Z,52.10
2018-04-10T20:06:29.010Z,38.83
2018-04-10T20:08:55.827Z,37.67
2018-04-10T20:11:22.039Z,54.90
2018-04-10T20:13:48.408Z,31.03
2018-04-10T20:16:14.972Z,39.00
2018-04-10T20:18:41.138Z,35.10
2018-04-10T20:21:07.193Z,35.43
2018-04-10T20:23:33.469Z,35.33
2018-04-10T20:26:00.322Z,33.03
2018-04-10T20:28:26.346Z,34.03
2018-04-10T20:30:52.643Z,31.63
2018-04-10T20:33:19.484Z,52.87
2018-04-10T20:35:45.750Z,37.50
2018-04-10T20:38:12.030Z,37.80
2018-04-10T20:40:38.054Z,30.60
2018-04-10T20:43:04.076Z,33.00
2018-04-10T20:45:30.315Z,34.57
2018-04-10T20:47:56.381Z,38.73
2018-04-10T20:50:22.505Z,31.20
2018-04-10T20:52:48.796Z,34.70
2018-04-10T20:55:15.011Z,39.47
2018-04-10T20:57:41.137Z,37.87
2018-04-10T21:00:07.346Z,32.00
2018-04-10T21:02:34.143Z,55.43
2018-04-10T21:05:01.158Z,37.60
2018-04-10T21:07:27.989Z,35.70
2018-04-10T21:09:54.331Z,38.00
2018-04-10T21:12:20.494Z,33.00
2018-04-10T21:14:46.877Z,35.17
2018-04-10T21:17:12.917Z,35.80
2018-04-10T21:19:38.950Z,35.60
2018-04-10T21:22:12.025Z,34.20
2018-04-10T21:24:38.822Z,34.03
2018-04-10T21:27:04.880Z,27.43
2018-04-10T21:29:30.977Z,33.43
2018-04-10T21:31:57.024Z,35.87
2018-04-10T21:34:23.457Z,32.80
2018-04-10T21:36:49.831Z,31.03
2018-04-10T21:39:16.257Z,27.37
2018-04-10T21:41:43.172Z,32.30
2018-04-10T21:44:10.033Z,29.13
2018-04-10T21:46:36.828Z,28.70
2018-04-10T21:49:02.904Z,31.07
2018-04-10T21:51:29.091Z,27.83
2018-04-10T21:53:55.149Z,29.53
2018-04-10T21:56:21.471Z,29.30
2018-04-10T21:58:47.725Z,35.23
2018-04-10T22:01:13.785Z,30.60
2018-04-10T22:03:40.153Z,26.90
2018-04-10T22:06:06.197Z,27.83
2018-04-10T22:08:32.984Z,30.60
2018-04-10T22:10:59.045Z,28.10
2018-04-10T22:13:25.062Z,28.53
2018-04-10T22:15:51.302Z,36.50
2018-04-10T22:18:18.153Z,27.63
2018-04-10T22:20:45.062Z,28.43
2018-04-10T22:23:11.314Z,26.77
2018-04-10T22:25:37.405Z,31.30
2018-04-10T22:28:03.784Z,23.47
2018-04-10T22:30:29.865Z,27.60
2018-04-10T22:32:55.862Z,22.40
2018-04-10T22:35:22.733Z,24.13
2018-04-10T22:37:49.314Z,24.93
2018-04-10T22:40:15.946Z,21.90
2018-04-10T22:42:42.138Z,31.30
2018-04-10T22:45:08.263Z,23.03
2018-04-10T22:47:34.314Z,27.47
2018-04-10T22:50:00.421Z,32.80
2018-04-10T22:52:26.496Z,28.53
2018-04-10T22:54:53.402Z,23.60
2018-04-10T22:57:19.842Z,23.30
2018-04-10T22:59:46.330Z,24.10
2018-04-10T23:02:12.477Z,25.90
2018-04-10T23:04:38.597Z,24.03
2018-04-10T23:07:04.638Z,27.40
2018-04-10T23:09:30.682Z,22.50
2018-04-10T23:11:56.840Z,27.47
2018-04-10T23:14:23.026Z,21.53
2018-04-10T23:16:49.666Z,20.83
2018-04-10T23:19:17.550Z,22.20
2018-04-10T23:21:43.898Z,24.73
2018-04-10T23:24:10.238Z,28.80
2018-04-10T23:26:37.495Z,24.50
2018-04-10T23:29:04.622Z,25.40
2018-04-10T23:31:30.702Z,26.83
2018-04-10T23:33:57.544Z,23.60
2018-04-10T23:36:25.148Z,18.00
2018-04-10T23:38:52.302Z,26.10
2018-04-10T23:41:19.591Z,14.57
2018-04-10T23:43:52.582Z,17.30
2018-04-10T23:46:19.637Z,26.10
2018-04-10T23:48:46.348Z,19.50
2018-04-10T23:51:12.427Z,28.40
2018-04-10T23:53:39.292Z,25.97
2018-04-10T23:56:06.141Z,20.97
2018-04-10T23:58:32.931Z,27.10
